WetterOnline ( https://www.wetteronline.ch )

Wetter aktuell Frankenthal

Aktuelles Wetter: Mannheim (100m)

6-stündlich | Neueste Meldungen
Ortszeit Temperatur Wetter
So, 20.06. 8:00 23.8° C wolkig
So, 20.06. 2:00 28.2° C bedeckt
Sa, 19.06. 20:00 31.3° C wolkig
Sa, 19.06. 14:00 32.2° C fast wolkenlos
Sa, 19.06. 8:00 24.1° C wolkenlos
Sa, 19.06. 2:00 23.0° C bewölkt
Fr, 18.06. 20:00 32.0° C leicht bewölkt
Fr, 18.06. 14:00 32.5° C bewölkt
Ortszeit Temperatur Wetter
So, 20.06. 8:30 23.7° C wolkig
So, 20.06. 8:20 23.7° C wolkig
So, 20.06. 8:10 23.9° C wolkig
So, 20.06. 8:00 23.8° C wolkig
So, 20.06. 7:50 23.8° C wolkig
So, 20.06. 7:40 23.8° C wolkig
So, 20.06. 7:30 24.2° C wolkig
So, 20.06. 7:00 24.6° C wolkig
Ortszeit Relative Feuchte Sichtweite
So, 20.06. 8:00 62% 50 km
So, 20.06. 2:00 53% 35 km
Sa, 19.06. 20:00 40% 35 km
Sa, 19.06. 14:00 37% 40 km
Sa, 19.06. 8:00 70% 30 km
Sa, 19.06. 2:00 69% 35 km
Fr, 18.06. 20:00 37% 40 km
Fr, 18.06. 14:00 41% 35 km
Ortszeit Relative Feuchte Sichtweite
So, 20.06. 8:30 62% 60 km
So, 20.06. 8:20 62% -
So, 20.06. 8:10 63% -
So, 20.06. 8:00 62% 50 km
So, 20.06. 7:50 62% -
So, 20.06. 7:40 61% -
So, 20.06. 7:30 60% 50 km
So, 20.06. 7:00 58% 55 km
Ortszeit Niederschlagsmenge Niederschlagsart
So, 20.06. 8:00 0.0 l/m2 in 12 Std. -
So, 20.06. 2:00 0.0 l/m2 in 6 Std. -
Sa, 19.06. 20:00 0.0 l/m2 in 12 Std. -
Sa, 19.06. 14:00 0.0 l/m2 in 6 Std. -
Sa, 19.06. 8:00 0.1 l/m2 in 12 Std. Regen
Sa, 19.06. 2:00 0.1 l/m2 in 6 Std. Regen
Fr, 18.06. 20:00 0.0 l/m2 in 12 Std. -
Fr, 18.06. 14:00 0.0 l/m2 in 6 Std. -
Ortszeit Niederschlagsmenge Niederschlagsart
So, 20.06. 8:30 0.0 l/m2 in 1 Std. -
So, 20.06. 8:20 keine Meldung -
So, 20.06. 8:10 keine Meldung -
So, 20.06. 8:00 0.0 l/m2 in 1 Std. -
So, 20.06. 7:50 keine Meldung -
So, 20.06. 7:40 keine Meldung -
So, 20.06. 7:30 0.0 l/m2 in 1 Std. -
So, 20.06. 7:00 0.0 l/m2 in 1 Std. -
Ortszeit Stärke Spitze Richtung
km/h Bft. km/h Grad Sektor
So, 20.06. 8:00 18 3 32 230° SW
So, 20.06. 2:00 14 3 29 170° S
Sa, 19.06. 20:00 7 2 22 80° O
Sa, 19.06. 14:00 9 2 19 200° S
Sa, 19.06. 8:00 7 2 18 180° S
Sa, 19.06. 2:00 7 2 50 190° S
Fr, 18.06. 20:00 6 1 22 150° SO
Fr, 18.06. 14:00 11 2 20 210° SW
Ortszeit Stärke Spitze Richtung
km/h Bft. km/h Grad Sektor
So, 20.06. 8:30 9 2 30 250° W
So, 20.06. 8:20 9 2 - 250° W
So, 20.06. 8:10 14 3 - 240° SW
So, 20.06. 8:00 18 3 29 230° SW
So, 20.06. 7:50 18 3 - 230° SW
So, 20.06. 7:40 18 3 - 240° SW
So, 20.06. 7:30 15 3 24 250° W
So, 20.06. 7:00 11 2 29 260° W
Ortszeit Untergrenze Bedeckung Gattung
total tief tief mittel hoch
So, 20.06. 8:00 2700 m 8/8 2/8 - - -
So, 20.06. 2:00 4800 m 8/8 8/8 - - -
Sa, 19.06. 20:00 6000 m 6/8 5/8 - - -
Sa, 19.06. 14:00 6000 m 1/8 1/8 - - -
Sa, 19.06. 8:00 - 0/8 0/8 - - -
Sa, 19.06. 2:00 3300 m 8/8 7/8 - - -
Fr, 18.06. 20:00 10500 m 6/8 0/8 - - -
Fr, 18.06. 14:00 3000 m 7/8 7/8 - - -
Ortszeit Bedeckungsgrad in Achtel und Wolkenuntergrenze
So, 20.06. 8:30 1(1020m) 7(9000m) 7(10500m)
So, 20.06. 8:20 1(1020m) 7(9000m) 7(10500m)
So, 20.06. 8:10 1(1050m) 6(9000m) 7(10500m)
So, 20.06. 8:00 2(2700m) 7(4200m) 8(9000m)
So, 20.06. 7:50 2(2700m) 7(4200m) 8(9000m)
So, 20.06. 7:40 1(2700m) 7(4200m) 8(9000m)
So, 20.06. 7:30 1(1110m) 8(4200m) 8(9000m)
So, 20.06. 7:00 2(4200m) 6(9000m) 7(10500m)
Ortszeit Luftdruck NN (hPa) Tendenz (hPa in 3 Std.)
So, 20.06. 8:00 1012 + 1,8
So, 20.06. 2:00 1007 - 1,4
Sa, 19.06. 20:00 1009 - 2,2
Sa, 19.06. 14:00 1013 - 2,2
Sa, 19.06. 8:00 1016 + 1,4
Sa, 19.06. 2:00 1014 + 0,2
Fr, 18.06. 20:00 1011 0,0
Fr, 18.06. 14:00 1012 - 0,4
Ortszeit Luftdruck NN (hPa) Tendenz (hPa in 3 Std.)
So, 20.06. 8:30 1011 + 1,3
So, 20.06. 8:20 1011 keine Meldung
So, 20.06. 8:10 1011 keine Meldung
So, 20.06. 8:00 1012 + 1,8
So, 20.06. 7:50 1012 keine Meldung
So, 20.06. 7:40 1012 keine Meldung
So, 20.06. 7:30 1011 + 1,6
So, 20.06. 7:00 1011 + 1,9
Ortszeit Schneehöhe (cm)
So, 20.06. 8:00 -
So, 20.06. 2:00 -
Sa, 19.06. 20:00 -
Sa, 19.06. 14:00 -
Sa, 19.06. 8:00 -
Sa, 19.06. 2:00 -
Fr, 18.06. 20:00 -
Fr, 18.06. 14:00 -
Ortszeit Schneehöhe (cm)
So, 20.06. 8:30 -
So, 20.06. 8:20 -
So, 20.06. 8:10 -
So, 20.06. 8:00 -
So, 20.06. 7:50 -
So, 20.06. 7:40 -
So, 20.06. 7:30 -
So, 20.06. 7:00 -
Link zu dieser Seite / Seite empfehlen

Das Wetter in ...